Time;durP1;ratioP1;P1;durP2;ratioP2;P2;SDS_P1;SDS_P2;PMS_P1;PMS_P2;Temp;Humidity;BMP_temperature;BMP_pressure;BME280_temperature;BME280_humidity;BME280_pressure;Samples;Min_cycle;Max_cycle;Signal;HPM_P1;HPM_P2
2021/09/26 00:00:30;;;;;;;30.75;22.10;;;17.80;99.90;;;;;;4974736;28;20035;-75
2021/09/26 00:02:56;;;;;;;29.00;21.35;;;17.80;99.90;;;;;;4977239;28;20022;-75
2021/09/26 00:05:22;;;;;;;32.70;21.75;;;17.80;99.90;;;;;;4976851;28;20042;-75
2021/09/26 00:07:47;;;;;;;32.70;22.77;;;17.80;99.90;;;;;;4978342;28;20034;-75
2021/09/26 00:10:13;;;;;;;30.73;20.67;;;17.90;99.90;;;;;;4977941;28;20484;-75
2021/09/26 00:12:40;;;;;;;31.48;22.08;;;17.90;99.90;;;;;;4978003;28;20382;-75
2021/09/26 00:15:10;;;;;;;26.15;19.90;;;18.00;99.90;;;;;;4977959;28;20027;-75
2021/09/26 00:17:35;;;;;;;27.02;19.35;;;18.10;99.90;;;;;;4977885;28;20110;-75
2021/09/26 00:20:02;;;;;;;34.55;21.10;;;18.10;99.90;;;;;;4978229;28;20150;-75
2021/09/26 00:22:28;;;;;;;31.85;21.67;;;18.00;99.90;;;;;;4977614;28;20104;-74
2021/09/26 00:24:53;;;;;;;38.25;23.33;;;18.00;99.90;;;;;;4977791;28;20556;-75
2021/09/26 00:27:19;;;;;;;33.97;22.30;;;18.00;99.90;;;;;;4977740;28;20057;-75
2021/09/26 00:29:45;;;;;;;32.58;23.33;;;18.00;99.90;;;;;;4977732;28;20033;-75
2021/09/26 00:32:10;;;;;;;29.85;21.73;;;18.00;99.90;;;;;;4977613;28;20023;-75
2021/09/26 00:34:36;;;;;;;30.45;20.73;;;18.00;99.90;;;;;;4977586;28;20090;-75
2021/09/26 00:37:03;;;;;;;34.17;23.27;;;18.00;99.90;;;;;;4977559;28;20019;-74
2021/09/26 00:39:29;;;;;;;32.47;23.13;;;18.10;99.90;;;;;;4977779;28;20030;-74
2021/09/26 00:41:55;;;;;;;28.77;20.67;;;18.00;99.90;;;;;;4977462;28;20102;-74
2021/09/26 00:44:21;;;;;;;28.30;19.75;;;18.00;99.90;;;;;;4977711;28;20042;-74
2021/09/26 00:46:47;;;;;;;32.03;19.85;;;18.10;99.90;;;;;;4977919;28;20033;-75
2021/09/26 00:49:13;;;;;;;30.77;22.13;;;18.10;99.90;;;;;;4977329;28;20030;-74
2021/09/26 00:51:39;;;;;;;34.70;21.13;;;18.10;99.90;;;;;;4977233;28;20056;-75
2021/09/26 00:54:05;;;;;;;36.90;23.13;;;18.10;99.90;;;;;;4977775;28;20023;-75
2021/09/26 00:56:31;;;;;;;28.77;20.73;;;18.10;99.90;;;;;;4975941;28;20082;-75
2021/09/26 00:58:58;;;;;;;29.40;20.55;;;18.10;99.90;;;;;;4977036;28;20489;-75
2021/09/26 01:01:24;;;;;;;34.80;21.15;;;18.10;99.90;;;;;;4977091;28;20042;-75
2021/09/26 01:03:50;;;;;;;40.70;24.10;;;18.20;99.90;;;;;;4977097;28;20026;-75
2021/09/26 01:06:23;;;;;;;31.05;21.98;;;18.20;99.90;;;;;;4977066;28;20031;-75
2021/09/26 01:09:30;;;;;;;34.00;23.50;;;18.10;99.90;;;;;;4977304;28;20027;-75
2021/09/26 01:12:08;;;;;;;30.50;21.95;;;18.10;99.90;;;;;;4976307;28;20043;-75
2021/09/26 01:14:40;;;;;;;36.08;22.17;;;18.10;99.90;;;;;;4976804;28;20390;-74
2021/09/26 01:17:17;;;;;;;31.17;23.08;;;18.10;99.90;;;;;;4977156;28;20529;-75
2021/09/26 01:19:55;;;;;;;31.92;22.33;;;18.10;99.90;;;;;;4976796;28;20019;-75
2021/09/26 01:22:38;;;;;;;33.33;22.15;;;18.20;99.90;;;;;;4976591;28;20456;-74
2021/09/26 01:25:33;;;;;;;33.63;21.50;;;18.10;99.90;;;;;;4976756;28;20035;-75
2021/09/26 01:28:17;;;;;;;27.80;21.80;;;18.10;99.90;;;;;;4940519;28;20114;-75
2021/09/26 01:30:55;;;;;;;33.85;22.65;;;18.10;99.90;;;;;;4976498;28;20035;-75
2021/09/26 01:33:33;;;;;;;31.08;22.23;;;18.00;99.90;;;;;;4976893;28;20097;-75
2021/09/26 01:36:19;;;;;;;32.15;20.83;;;18.00;99.90;;;;;;4976577;28;20030;-75
2021/09/26 01:39:04;;;;;;;25.60;19.08;;;18.10;99.90;;;;;;4976814;28;20023;-75
2021/09/26 01:41:35;;;;;;;25.63;18.10;;;18.20;99.90;;;;;;4977044;28;20026;-75
2021/09/26 01:44:07;;;;;;;32.83;19.35;;;18.20;99.90;;;;;;4976446;28;20026;-74
2021/09/26 01:46:39;;;;;;;27.75;20.08;;;18.20;99.90;;;;;;4976389;28;20035;-74
2021/09/26 01:49:14;;;;;;;29.00;18.83;;;18.20;99.90;;;;;;4976481;28;20035;-75
2021/09/26 01:51:43;;;;;;;27.15;18.20;;;18.20;99.90;;;;;;4976500;28;20034;-75
2021/09/26 01:54:12;;;;;;;24.20;18.25;;;18.20;99.90;;;;;;4976236;28;20029;-75
2021/09/26 01:56:40;;;;;;;22.60;17.52;;;18.20;99.90;;;;;;4976208;28;20025;-75
2021/09/26 01:59:06;;;;;;;24.45;17.20;;;18.30;99.90;;;;;;4976122;28;20050;-75
2021/09/26 02:01:33;;;;;;;26.50;19.33;;;18.30;99.90;;;;;;4976095;28;20109;-74
2021/09/26 02:04:01;;;;;;;27.63;19.75;;;18.30;99.90;;;;;;4976000;28;20030;-75
2021/09/26 02:06:27;;;;;;;26.00;19.02;;;18.30;99.90;;;;;;4975910;28;20110;-75
2021/09/26 02:08:53;;;;;;;26.20;18.35;;;18.30;99.90;;;;;;4976452;28;20150;-75
2021/09/26 02:11:19;;;;;;;27.70;18.65;;;18.30;99.90;;;;;;4975838;28;20045;-74
2021/09/26 02:13:47;;;;;;;23.15;17.17;;;18.30;99.90;;;;;;4976132;28;20019;-75
2021/09/26 02:16:14;;;;;;;26.55;19.52;;;18.30;99.90;;;;;;4975834;28;20034;-75
2021/09/26 02:18:40;;;;;;;20.90;16.15;;;18.20;99.90;;;;;;4975679;28;20058;-75
2021/09/26 02:21:07;;;;;;;21.50;16.25;;;18.20;99.90;;;;;;4975541;28;20031;-75
2021/09/26 02:23:34;;;;;;;23.15;17.60;;;18.30;99.90;;;;;;4975227;28;20105;-75
2021/09/26 02:26:00;;;;;;;24.38;18.88;;;18.30;99.90;;;;;;4975198;28;20019;-75
2021/09/26 02:28:27;;;;;;;23.52;17.50;;;18.20;99.90;;;;;;4975559;28;20018;-75
2021/09/26 02:30:52;;;;;;;24.20;16.88;;;18.20;99.90;;;;;;4975419;28;20031;-76
2021/09/26 02:33:18;;;;;;;25.10;17.75;;;18.20;99.90;;;;;;4975426;28;20097;-75
2021/09/26 02:35:44;;;;;;;27.42;20.00;;;18.30;99.90;;;;;;4975371;28;20027;-75
2021/09/26 02:38:10;;;;;;;24.73;18.52;;;18.30;99.90;;;;;;4974070;28;20457;-75
2021/09/26 02:40:36;;;;;;;19.05;15.95;;;18.30;99.90;;;;;;4975336;28;20042;-75
2021/09/26 02:43:28;;;;;;;22.27;16.83;;;18.30;99.90;;;;;;4974971;28;20034;-75
2021/09/26 02:46:05;;;;;;;21.85;16.67;;;18.30;99.90;;;;;;4975778;28;20019;-75
2021/09/26 02:48:31;;;;;;;23.23;17.65;;;18.30;99.90;;;;;;4975536;28;20097;-75
2021/09/26 02:50:58;;;;;;;25.48;21.08;;;18.20;99.90;;;;;;4975650;28;20091;-75
2021/09/26 02:53:28;;;;;;;20.38;15.45;;;18.20;99.90;;;;;;4975067;28;20401;-74
2021/09/26 02:55:56;;;;;;;22.05;17.73;;;18.20;99.90;;;;;;4975096;28;20057;-75
2021/09/26 02:58:22;;;;;;;23.02;17.52;;;18.20;99.90;;;;;;4974969;28;20038;-75
2021/09/26 03:00:48;;;;;;;21.35;15.65;;;18.20;99.90;;;;;;4975258;28;20500;-75
2021/09/26 03:03:23;;;;;;;27.30;16.92;;;18.20;99.90;;;;;;4975195;28;20034;-75
2021/09/26 03:05:50;;;;;;;21.75;16.88;;;18.30;99.90;;;;;;4975218;28;20027;-75
2021/09/26 03:08:17;;;;;;;23.85;16.25;;;18.20;99.90;;;;;;4974898;28;20090;-75
2021/09/26 03:10:45;;;;;;;24.05;16.35;;;18.20;99.90;;;;;;4974746;28;20034;-75
2021/09/26 03:13:10;;;;;;;18.15;12.95;;;18.10;99.90;;;;;;4975047;28;20492;-75
2021/09/26 03:15:37;;;;;;;17.02;12.77;;;18.10;99.90;;;;;;4974770;28;20023;-75
2021/09/26 03:18:03;;;;;;;20.13;13.15;;;18.10;99.90;;;;;;4974753;28;20050;-74
2021/09/26 03:20:29;;;;;;;19.52;12.23;;;18.10;99.90;;;;;;4974568;28;20023;-75
2021/09/26 03:22:55;;;;;;;17.52;13.32;;;18.20;99.90;;;;;;4974557;28;20496;-75
2021/09/26 03:25:21;;;;;;;16.77;12.27;;;18.20;99.90;;;;;;4975185;28;20415;-75
2021/09/26 03:27:47;;;;;;;18.90;13.13;;;18.10;99.90;;;;;;4974602;28;20473;-75
2021/09/26 03:30:14;;;;;;;19.95;13.52;;;18.10;99.90;;;;;;4974584;28;20388;-75
2021/09/26 03:32:40;;;;;;;16.52;11.57;;;18.10;99.90;;;;;;4974509;28;20035;-75
2021/09/26 03:35:08;;;;;;;20.48;13.60;;;18.20;99.90;;;;;;4974564;28;20047;-75
2021/09/26 03:37:34;;;;;;;18.77;12.75;;;18.20;99.90;;;;;;4974699;28;20034;-75
2021/09/26 03:40:00;;;;;;;21.52;12.50;;;18.20;99.90;;;;;;4974486;28;20019;-75
2021/09/26 03:42:25;;;;;;;17.58;12.93;;;18.20;99.90;;;;;;4974693;28;20031;-75
2021/09/26 03:44:51;;;;;;;20.17;13.82;;;18.20;99.90;;;;;;4974389;28;20038;-75
2021/09/26 03:47:17;;;;;;;21.98;14.73;;;18.10;99.90;;;;;;4974375;28;20538;-75
2021/09/26 03:49:42;;;;;;;19.05;14.52;;;18.20;99.90;;;;;;4974334;28;20060;-75
2021/09/26 03:52:09;;;;;;;18.38;13.50;;;18.20;99.90;;;;;;4974226;28;20085;-75
2021/09/26 03:54:35;;;;;;;17.52;12.65;;;18.20;99.90;;;;;;4974319;28;20026;-75
2021/09/26 03:57:00;;;;;;;17.70;13.70;;;18.20;99.90;;;;;;4974370;28;20027;-75
2021/09/26 03:59:26;;;;;;;19.10;14.45;;;18.20;99.90;;;;;;4974863;28;20019;-75
2021/09/26 04:01:52;;;;;;;22.65;14.98;;;18.20;99.90;;;;;;4974519;28;20035;-75
2021/09/26 04:04:18;;;;;;;21.48;15.80;;;18.20;99.90;;;;;;4974759;28;20136;-75
2021/09/26 04:06:45;;;;;;;21.38;16.02;;;18.20;99.90;;;;;;4974236;28;20034;-75
2021/09/26 04:09:11;;;;;;;26.20;18.23;;;18.20;99.90;;;;;;4974184;28;20393;-74
2021/09/26 04:11:37;;;;;;;24.63;18.08;;;18.10;99.90;;;;;;4974075;28;20031;-75
2021/09/26 04:14:04;;;;;;;30.05;20.27;;;18.10;99.90;;;;;;4974120;28;20027;-75
2021/09/26 04:16:29;;;;;;;32.13;20.73;;;18.20;99.90;;;;;;4974119;28;20042;-74
2021/09/26 04:18:55;;;;;;;31.00;19.40;;;18.10;99.90;;;;;;4974053;28;20489;-75
2021/09/26 04:21:21;;;;;;;37.20;22.20;;;18.10;99.90;;;;;;4974291;28;20035;-75
2021/09/26 04:23:48;;;;;;;31.67;22.52;;;18.10;99.90;;;;;;4973651;28;20042;-74
2021/09/26 04:26:14;;;;;;;37.67;22.92;;;18.10;99.90;;;;;;4974376;28;20452;-75
2021/09/26 04:28:40;;;;;;;32.88;22.55;;;18.10;99.90;;;;;;4974056;28;20027;-75
2021/09/26 04:31:06;;;;;;;35.58;24.15;;;18.10;99.90;;;;;;4973898;28;20392;-75
2021/09/26 04:33:32;;;;;;;35.70;24.10;;;18.00;99.90;;;;;;4973978;28;20027;-75
2021/09/26 04:35:57;;;;;;;32.95;22.98;;;18.00;99.90;;;;;;4973939;28;20485;-75
2021/09/26 04:38:23;;;;;;;36.58;23.65;;;18.00;99.90;;;;;;4973930;28;20049;-75
2021/09/26 04:40:49;;;;;;;35.28;22.70;;;18.00;99.90;;;;;;4973845;28;20031;-74
2021/09/26 04:43:14;;;;;;;39.00;23.77;;;18.00;99.90;;;;;;4973862;28;20022;-75
2021/09/26 04:45:40;;;;;;;33.80;23.42;;;18.10;99.90;;;;;;4974112;28;20031;-75
2021/09/26 04:48:07;;;;;;;35.17;22.38;;;18.10;99.90;;;;;;4975361;28;20027;-75
2021/09/26 04:50:34;;;;;;;32.30;22.83;;;18.00;99.90;;;;;;4975993;28;20429;-75
2021/09/26 04:52:59;;;;;;;29.40;21.50;;;18.00;99.90;;;;;;4977290;28;20019;-75
2021/09/26 04:55:26;;;;;;;33.50;23.98;;;18.10;99.90;;;;;;4977542;28;20034;-76
2021/09/26 04:57:53;;;;;;;33.08;22.02;;;18.10;99.90;;;;;;4977246;28;20054;-75
2021/09/26 05:00:19;;;;;;;34.67;22.95;;;18.10;99.90;;;;;;4975860;28;20511;-75
2021/09/26 05:02:45;;;;;;;34.00;23.42;;;18.10;99.90;;;;;;4977399;28;20089;-75
2021/09/26 05:05:11;;;;;;;34.45;24.20;;;18.10;99.90;;;;;;4977105;28;20449;-75
2021/09/26 05:07:37;;;;;;;32.33;23.05;;;18.00;99.90;;;;;;4977047;28;20023;-75
2021/09/26 05:10:04;;;;;;;35.92;22.90;;;18.10;99.90;;;;;;4977329;28;20389;-74
2021/09/26 05:12:29;;;;;;;32.45;22.17;;;18.10;99.90;;;;;;4976845;28;20045;-75
2021/09/26 05:15:01;;;;;;;34.30;21.98;;;18.10;99.90;;;;;;4977161;28;20474;-75
2021/09/26 05:17:26;;;;;;;35.35;23.35;;;18.10;99.90;;;;;;4977229;28;20019;-75
2021/09/26 05:19:52;;;;;;;40.85;24.30;;;18.10;99.90;;;;;;4976780;28;20500;-74
2021/09/26 05:22:18;;;;;;;37.15;23.40;;;18.00;99.90;;;;;;4976640;28;20049;-75
2021/09/26 05:24:43;;;;;;;33.60;22.98;;;18.00;99.90;;;;;;4976744;28;20074;-75
2021/09/26 05:27:09;;;;;;;33.63;23.10;;;18.00;99.90;;;;;;4975389;28;20026;-75
2021/09/26 05:29:35;;;;;;;31.60;21.23;;;18.00;99.90;;;;;;4976631;28;20507;-75
2021/09/26 05:32:01;;;;;;;32.40;22.63;;;18.10;99.90;;;;;;4976886;28;20027;-75
2021/09/26 05:34:28;;;;;;;34.20;22.65;;;18.00;99.90;;;;;;4975302;28;20477;-75
2021/09/26 05:36:54;;;;;;;37.13;23.83;;;18.00;99.90;;;;;;4976585;28;20098;-75
2021/09/26 05:39:21;;;;;;;39.08;24.23;;;18.00;99.90;;;;;;4976519;28;20473;-75
2021/09/26 05:41:47;;;;;;;37.00;24.95;;;18.00;99.90;;;;;;4976987;28;20465;-74
2021/09/26 05:44:12;;;;;;;35.42;23.35;;;18.00;99.90;;;;;;4976360;28;20038;-75
2021/09/26 05:46:38;;;;;;;36.63;22.90;;;18.00;99.90;;;;;;4976336;28;20034;-75
2021/09/26 05:49:04;;;;;;;32.88;21.23;;;18.00;99.90;;;;;;4976557;28;20549;-75
2021/09/26 05:51:29;;;;;;;36.95;22.92;;;18.00;99.90;;;;;;4976171;28;20485;-75
2021/09/26 05:53:55;;;;;;;32.53;23.48;;;18.00;99.90;;;;;;4976172;28;20031;-75
2021/09/26 05:56:20;;;;;;;31.52;21.98;;;18.00;99.90;;;;;;4974897;28;20057;-75
2021/09/26 05:58:46;;;;;;;32.95;22.30;;;18.00;99.90;;;;;;4975623;28;20424;-75
2021/09/26 06:01:12;;;;;;;32.40;21.45;;;18.00;99.90;;;;;;4975773;28;20037;-75
2021/09/26 06:03:38;;;;;;;29.60;21.20;;;18.00;99.90;;;;;;4976552;28;20034;-75
2021/09/26 06:06:04;;;;;;;35.42;22.90;;;18.00;99.90;;;;;;4974695;28;20030;-75
2021/09/26 06:08:30;;;;;;;27.67;20.15;;;18.00;99.90;;;;;;4975973;28;20029;-75
2021/09/26 06:10:56;;;;;;;34.50;21.10;;;17.90;99.90;;;;;;4976126;28;20078;-75
2021/09/26 06:13:21;;;;;;;39.60;20.05;;;18.00;99.90;;;;;;4976371;28;20089;-75
2021/09/26 06:15:47;;;;;;;28.98;20.58;;;18.00;99.90;;;;;;4976352;28;20021;-75
2021/09/26 06:18:13;;;;;;;30.25;19.67;;;18.00;99.90;;;;;;4975762;28;20049;-75
2021/09/26 06:20:39;;;;;;;27.05;18.35;;;17.90;99.90;;;;;;4975760;28;20085;-75
2021/09/26 06:23:04;;;;;;;26.90;17.52;;;17.90;99.90;;;;;;4975438;28;20042;-75
2021/09/26 06:25:30;;;;;;;25.63;17.55;;;17.90;99.90;;;;;;4975629;28;20098;-75
2021/09/26 06:27:59;;;;;;;23.50;17.27;;;17.90;99.90;;;;;;4975550;28;20428;-74
2021/09/26 06:30:24;;;;;;;27.02;18.75;;;17.90;99.90;;;;;;4976096;28;20077;-75
2021/09/26 06:32:50;;;;;;;24.08;16.65;;;17.90;99.90;;;;;;4975412;28;20067;-75
2021/09/26 06:35:16;;;;;;;23.38;16.27;;;18.00;99.90;;;;;;4975413;28;20026;-74
2021/09/26 06:37:42;;;;;;;20.88;16.05;;;18.00;99.90;;;;;;4975432;28;20094;-75
2021/09/26 06:40:09;;;;;;;23.92;15.77;;;18.00;99.90;;;;;;4975334;28;20520;-75
2021/09/26 06:42:35;;;;;;;21.38;14.93;;;18.00;99.90;;;;;;4975834;28;20030;-75
2021/09/26 06:45:00;;;;;;;21.70;14.70;;;18.00;99.90;;;;;;4975522;28;20500;-75
2021/09/26 06:47:26;;;;;;;19.52;14.52;;;18.00;99.90;;;;;;4975509;28;20031;-75
2021/09/26 06:49:52;;;;;;;20.52;14.95;;;18.00;99.90;;;;;;4975249;28;20058;-75
2021/09/26 06:52:18;;;;;;;21.00;14.75;;;18.00;99.90;;;;;;4975358;28;20027;-75
2021/09/26 06:54:44;;;;;;;22.77;14.73;;;18.00;99.90;;;;;;4975137;28;20019;-75
2021/09/26 06:57:10;;;;;;;19.42;14.65;;;18.10;99.90;;;;;;4975114;28;20027;-75
2021/09/26 06:59:37;;;;;;;19.30;13.18;;;18.10;99.90;;;;;;4975027;28;20485;-74
2021/09/26 07:02:03;;;;;;;22.52;14.73;;;18.10;99.90;;;;;;4975008;28;20110;-75
2021/09/26 07:04:29;;;;;;;19.63;13.93;;;18.10;99.90;;;;;;4975277;28;20019;-75
2021/09/26 07:06:55;;;;;;;19.00;14.13;;;18.20;99.90;;;;;;4975147;28;20057;-75
2021/09/26 07:09:20;;;;;;;20.52;14.15;;;18.20;99.90;;;;;;4974895;28;20054;-75
2021/09/26 07:11:46;;;;;;;20.38;13.65;;;18.20;99.90;;;;;;4974475;28;20374;-75
2021/09/26 07:14:12;;;;;;;20.17;13.25;;;18.20;99.90;;;;;;4974787;28;20019;-75
2021/09/26 07:16:38;;;;;;;17.08;13.45;;;18.30;99.90;;;;;;4974768;28;20027;-75
2021/09/26 07:19:04;;;;;;;17.08;12.00;;;18.30;99.90;;;;;;4974711;28;20038;-75
2021/09/26 07:21:30;;;;;;;15.93;11.07;;;18.30;99.90;;;;;;4974764;28;20062;-75
2021/09/26 07:23:56;;;;;;;16.27;10.82;;;18.20;99.90;;;;;;4974937;28;20031;-75
2021/09/26 07:26:21;;;;;;;17.67;11.68;;;18.20;99.90;;;;;;4974897;28;20397;-75
2021/09/26 07:28:47;;;;;;;17.85;11.48;;;18.20;99.90;;;;;;4975147;28;20051;-75
2021/09/26 07:31:14;;;;;;;18.70;10.90;;;18.30;99.90;;;;;;4974496;28;20535;-75
2021/09/26 07:33:40;;;;;;;16.48;11.02;;;18.30;99.90;;;;;;4974528;28;20026;-75
2021/09/26 07:36:06;;;;;;;15.43;10.77;;;18.30;99.90;;;;;;4974506;28;20026;-75
2021/09/26 07:38:31;;;;;;;15.63;10.10;;;18.40;99.90;;;;;;4974486;28;20470;-75
2021/09/26 07:40:57;;;;;;;13.25;9.45;;;18.40;99.90;;;;;;4974480;28;20078;-75
2021/09/26 07:43:25;;;;;;;13.77;10.00;;;18.40;99.90;;;;;;4974711;28;20364;-74
2021/09/26 07:45:51;;;;;;;13.45;9.27;;;18.40;99.90;;;;;;4974685;28;20034;-75
2021/09/26 07:48:17;;;;;;;14.15;9.82;;;18.40;99.90;;;;;;4973141;28;20026;-75
2021/09/26 07:50:43;;;;;;;13.32;10.10;;;18.40;99.90;;;;;;4974292;28;20031;-74
2021/09/26 07:53:08;;;;;;;16.27;10.80;;;18.40;99.90;;;;;;4974371;28;20050;-75
2021/09/26 07:55:34;;;;;;;14.50;10.68;;;18.40;99.90;;;;;;4974316;28;20069;-75
2021/09/26 07:58:00;;;;;;;16.20;10.38;;;18.30;99.90;;;;;;4974273;28;20019;-75
2021/09/26 08:00:25;;;;;;;13.38;10.38;;;18.40;99.90;;;;;;4974299;28;20023;-75
2021/09/26 08:02:51;;;;;;;16.20;9.85;;;18.30;99.90;;;;;;4974206;28;20027;-75
2021/09/26 08:05:17;;;;;;;12.93;9.50;;;18.30;99.90;;;;;;4974193;28;20122;-74
2021/09/26 08:07:42;;;;;;;13.70;9.60;;;18.30;99.90;;;;;;4974235;28;20030;-75
2021/09/26 08:10:09;;;;;;;13.55;10.10;;;18.30;99.90;;;;;;4974174;28;20389;-75
2021/09/26 08:12:35;;;;;;;13.75;10.32;;;18.30;99.90;;;;;;4974107;28;20524;-75
2021/09/26 08:15:02;;;;;;;15.35;9.82;;;18.40;99.90;;;;;;4974107;28;20105;-75
2021/09/26 08:17:28;;;;;;;14.00;10.35;;;18.40;99.90;;;;;;4974110;28;20019;-74
2021/09/26 08:19:53;;;;;;;14.18;10.15;;;18.40;99.90;;;;;;4973982;28;20174;-75
2021/09/26 08:22:19;;;;;;;17.95;11.35;;;18.50;99.90;;;;;;4973910;28;20047;-75
2021/09/26 08:24:45;;;;;;;17.13;10.43;;;18.50;99.90;;;;;;4977798;28;20027;-75
2021/09/26 08:27:11;;;;;;;15.55;10.65;;;18.50;99.90;;;;;;4977832;28;20023;-75
2021/09/26 08:29:36;;;;;;;20.27;12.02;;;18.50;99.90;;;;;;4977722;28;20029;-75
2021/09/26 08:32:05;;;;;;;18.17;11.43;;;18.60;99.90;;;;;;4977576;28;20031;-74
2021/09/26 08:34:31;;;;;;;16.75;11.98;;;18.60;99.90;;;;;;4977804;28;20382;-75
2021/09/26 08:36:57;;;;;;;15.90;11.82;;;18.70;99.90;;;;;;4977463;28;20019;-75
2021/09/26 08:39:23;;;;;;;15.85;11.57;;;18.80;99.90;;;;;;4978106;28;20022;-75
2021/09/26 08:41:54;;;;;;;16.25;11.93;;;19.00;99.90;;;;;;4977558;28;20428;-75
2021/09/26 08:44:26;;;;;;;17.05;11.38;;;19.10;99.90;;;;;;4977503;28;20038;-75
2021/09/26 08:46:52;;;;;;;16.20;11.18;;;19.20;99.90;;;;;;4977484;28;20030;-75
2021/09/26 08:49:19;;;;;;;14.57;11.15;;;19.30;99.90;;;;;;4977678;28;20026;-75
2021/09/26 08:51:50;;;;;;;14.55;10.93;;;19.30;99.90;;;;;;4977081;28;20031;-75
2021/09/26 08:54:16;;;;;;;17.30;11.50;;;19.10;99.90;;;;;;4977340;28;20085;-75
2021/09/26 08:56:43;;;;;;;15.45;11.73;;;19.00;99.90;;;;;;4977567;28;20027;-75
2021/09/26 08:59:13;;;;;;;17.35;11.40;;;19.00;99.90;;;;;;4977273;28;20074;-75
2021/09/26 09:01:39;;;;;;;15.73;12.10;;;18.90;99.90;;;;;;4977441;28;20485;-75
2021/09/26 09:04:05;;;;;;;17.10;11.73;;;18.90;99.90;;;;;;4977134;28;20035;-75
2021/09/26 09:07:01;;;;;;;15.77;11.23;;;18.90;99.90;;;;;;4975854;28;20027;-75
2021/09/26 09:09:26;;;;;;;19.33;13.15;;;19.00;99.90;;;;;;4975277;28;20125;-75
2021/09/26 09:12:04;;;;;;;16.45;12.65;;;19.00;99.90;;;;;;4977208;28;20110;-75
2021/09/26 09:15:05;;;;;;;16.17;12.23;;;19.00;99.90;;;;;;4977257;28;20019;-75
2021/09/26 09:17:32;;;;;;;19.25;13.00;;;19.10;99.90;;;;;;4899354;29;20129;-75
2021/09/26 09:20:10;;;;;;;19.52;12.13;;;19.10;99.90;;;;;;4961645;28;20122;-75
2021/09/26 09:22:36;;;;;;;15.38;11.70;;;19.30;99.90;;;;;;4976905;28;20050;-74
2021/09/26 09:25:01;;;;;;;15.13;11.68;;;19.70;99.90;;;;;;4976806;28;20030;-75
2021/09/26 09:27:27;;;;;;;17.17;11.52;;;20.80;99.90;;;;;;4976748;28;20393;-75
2021/09/26 09:29:53;;;;;;;14.88;10.05;;;20.80;99.90;;;;;;4976684;28;20033;-75
2021/09/26 09:32:22;;;;;;;16.60;10.85;;;20.50;99.90;;;;;;4976585;28;20105;-75
2021/09/26 09:34:48;;;;;;;15.52;10.18;;;20.40;99.90;;;;;;4976419;28;20021;-75
2021/09/26 09:37:21;;;;;;;14.25;10.18;;;20.30;99.90;;;;;;4976874;28;20030;-74
2021/09/26 09:40:10;;;;;;;15.88;10.27;;;20.00;99.90;;;;;;4976752;28;20018;-75
2021/09/26 09:42:37;;;;;;;15.07;10.45;;;19.80;99.90;;;;;;4976712;28;20489;-75
2021/09/26 09:45:16;;;;;;;14.32;10.10;;;19.60;99.90;;;;;;4976662;28;20082;-75
2021/09/26 09:48:00;;;;;;;14.52;10.05;;;19.50;99.90;;;;;;4976795;28;20054;-75
2021/09/26 09:50:34;;;;;;;16.15;11.20;;;19.40;99.90;;;;;;4976228;28;20082;-75
2021/09/26 09:53:01;;;;;;;16.23;12.13;;;19.40;99.90;;;;;;4976426;28;20034;-75
2021/09/26 09:55:29;;;;;;;18.55;10.75;;;19.40;99.90;;;;;;4976472;28;20027;-75
2021/09/26 09:58:14;;;;;;;18.55;10.50;;;19.80;99.90;;;;;;4976465;28;20477;-75
2021/09/26 10:01:09;;;;;;;12.95;9.48;;;20.30;99.90;;;;;;4976203;28;20077;-75
2021/09/26 10:03:47;;;;;;;10.88;7.60;;;20.90;99.90;;;;;;4974120;28;20085;-75
2021/09/26 10:06:43;;;;;;;10.85;7.45;;;21.30;99.90;;;;;;4976029;28;20050;-75
2021/09/26 10:09:23;;;;;;;11.45;7.53;;;21.80;99.30;;;;;;4963687;28;20037;-75
2021/09/26 10:12:03;;;;;;;10.20;7.85;;;22.30;97.30;;;;;;4976373;28;20031;-75
2021/09/26 10:14:33;;;;;;;;;;;22.40;97.10;;;;;;4976302;28;20548;-75
2021/09/26 10:17:02;;;;;;;9.13;6.28;;;22.40;96.00;;;;;;4975888;28;19913;-76
2021/09/26 10:19:30;;;;;;;9.07;6.70;;;22.00;97.10;;;;;;4975769;28;20050;-75
2021/09/26 10:21:58;;;;;;;9.00;6.35;;;21.60;97.20;;;;;;4975762;28;20039;-75
2021/09/26 10:24:28;;;;;;;9.27;5.88;;;21.50;98.10;;;;;;4975998;28;20034;-76
2021/09/26 10:26:58;;;;;;;10.25;6.13;;;21.70;99.90;;;;;;4975948;28;20026;-75
2021/09/26 10:29:29;;;;;;;8.18;5.05;;;21.70;96.50;;;;;;4976146;28;20031;-75
2021/09/26 10:31:56;;;;;;;7.70;4.70;;;21.60;96.30;;;;;;4973937;28;20448;-76
2021/09/26 10:34:24;;;;;;;6.35;4.50;;;21.70;96.20;;;;;;4975469;28;20030;-76
2021/09/26 10:36:50;;;;;;;7.95;5.10;;;21.60;96.20;;;;;;4975426;28;20022;-75
2021/09/26 10:39:16;;;;;;;7.53;4.50;;;21.50;96.50;;;;;;4975413;28;20065;-75
2021/09/26 10:42:04;;;;;;;6.82;4.63;;;21.40;96.80;;;;;;4975360;28;20062;-75
2021/09/26 10:44:30;;;;;;;9.13;4.30;;;21.40;98.20;;;;;;4975318;28;20035;-75
2021/09/26 10:47:12;;;;;;;5.40;3.78;;;21.50;98.00;;;;;;4974705;28;20085;-75
2021/09/26 10:49:40;;;;;;;7.30;4.53;;;21.50;96.90;;;;;;4975504;28;20027;-75
2021/09/26 10:52:27;;;;;;;6.30;3.92;;;21.50;96.90;;;;;;4975108;28;20027;-75
2021/09/26 10:54:54;;;;;;;6.45;3.63;;;21.50;97.80;;;;;;4973839;28;20374;-75
2021/09/26 10:57:26;;;;;;;6.18;3.70;;;21.50;97.10;;;;;;4975087;28;20046;-75
2021/09/26 10:59:55;;;;;;;6.47;3.95;;;21.40;97.30;;;;;;4973575;28;20062;-75
2021/09/26 11:02:23;;;;;;;5.47;3.50;;;21.20;96.90;;;;;;4975016;28;20110;-74
2021/09/26 11:04:51;;;;;;;6.50;3.75;;;21.20;98.10;;;;;;4974965;28;20480;-75
2021/09/26 11:07:17;;;;;;;5.20;4.13;;;21.20;97.40;;;;;;4973712;28;20023;-75
2021/09/26 11:10:10;;;;;;;5.47;3.92;;;21.20;98.40;;;;;;4973629;28;20053;-75
2021/09/26 11:12:43;;;;;;;6.63;4.18;;;21.30;98.50;;;;;;4972065;28;20073;-76
2021/09/26 11:15:16;;;;;;;9.18;4.40;;;21.40;99.00;;;;;;4974844;28;20027;-75
2021/09/26 11:17:47;;;;;;;6.50;4.22;;;21.50;97.70;;;;;;4973308;28;20030;-75
2021/09/26 11:20:25;;;;;;;6.50;3.80;;;21.60;97.70;;;;;;4974859;28;20037;-75
2021/09/26 11:23:17;;;;;;;6.97;4.15;;;21.60;96.50;;;;;;4974502;28;20482;-75
2021/09/26 11:26:00;;;;;;;7.78;3.97;;;21.60;97.00;;;;;;4966711;28;20038;-75
2021/09/26 11:28:29;;;;;;;5.53;3.70;;;21.70;96.80;;;;;;4974883;28;20110;-76
2021/09/26 11:30:57;;;;;;;8.73;4.32;;;21.70;96.70;;;;;;4974507;28;20027;-75
2021/09/26 11:33:23;;;;;;;5.38;3.05;;;21.70;96.40;;;;;;4975075;28;20026;-75
2021/09/26 11:35:49;;;;;;;5.32;3.60;;;21.80;96.10;;;;;;4973269;28;20065;-75
2021/09/26 11:38:18;;;;;;;7.53;3.67;;;21.90;96.40;;;;;;4974473;28;20054;-75
2021/09/26 11:41:07;;;;;;;5.18;3.50;;;21.90;96.20;;;;;;4974502;28;20026;-74
2021/09/26 11:43:39;;;;;;;5.88;3.15;;;21.90;96.30;;;;;;4974756;28;20038;-75
2021/09/26 11:46:23;;;;;;;6.30;3.58;;;21.80;94.10;;;;;;4974688;28;20030;-75
2021/09/26 11:48:49;;;;;;;6.68;3.08;;;21.70;94.30;;;;;;4974752;28;20023;-75
2021/09/26 11:51:16;;;;;;;5.13;3.08;;;21.70;93.30;;;;;;4974291;28;20035;-75
2021/09/26 11:53:43;;;;;;;3.97;2.85;;;21.70;93.90;;;;;;4974363;28;20134;-75
2021/09/26 11:56:16;;;;;;;6.25;3.20;;;21.70;93.10;;;;;;4974599;28;20022;-75
2021/09/26 11:58:42;;;;;;;6.28;2.78;;;21.70;93.70;;;;;;4976718;28;20118;-76
2021/09/26 12:01:07;;;;;;;3.00;2.60;;;21.70;92.30;;;;;;4978281;28;20081;-75
2021/09/26 12:03:33;;;;;;;4.72;3.08;;;21.80;92.80;;;;;;4978506;28;20117;-74
2021/09/26 12:06:00;;;;;;;5.15;2.80;;;21.80;92.20;;;;;;4978730;28;20066;-75
2021/09/26 12:08:40;;;;;;;4.10;2.60;;;21.90;92.40;;;;;;4978116;28;20023;-76
2021/09/26 12:11:08;;;;;;;4.90;2.85;;;21.90;91.60;;;;;;4978397;28;20030;-75
2021/09/26 12:13:55;;;;;;;3.45;2.50;;;21.80;91.10;;;;;;4978090;28;20082;-76
2021/09/26 12:16:23;;;;;;;4.30;2.35;;;21.90;91.20;;;;;;4978325;28;20057;-76
2021/09/26 12:18:54;;;;;;;4.10;2.67;;;21.90;91.40;;;;;;4978245;28;20085;-75
2021/09/26 12:21:24;;;;;;;2.95;2.40;;;22.00;91.30;;;;;;4978468;28;20456;-75
2021/09/26 12:23:53;;;;;;;5.68;2.40;;;22.10;91.20;;;;;;4977331;28;20544;-75
2021/09/26 12:26:28;;;;;;;3.22;2.35;;;22.00;91.30;;;;;;4977727;28;20560;-75
2021/09/26 12:29:20;;;;;;;4.13;2.65;;;22.20;91.10;;;;;;4978077;28;20035;-75
2021/09/26 12:31:50;;;;;;;4.63;2.60;;;22.20;90.50;;;;;;4978019;28;20035;-75
2021/09/26 12:34:34;;;;;;;3.58;2.55;;;22.20;90.80;;;;;;4978027;28;20030;-76
2021/09/26 12:37:03;;;;;;;4.03;2.20;;;22.20;91.10;;;;;;4976177;28;20027;-76
2021/09/26 12:39:39;;;;;;;3.90;2.58;;;22.40;92.40;;;;;;4977636;28;20362;-75